sensor_id;sensor_type;location;lat;lon;timestamp;temperature;humidity
45765;DHT22;31474;45.332;10.230;2022-12-07T00:03:42;3.30;99.90
45765;DHT22;31474;45.332;10.230;2022-12-07T00:06:10;3.30;99.90
45765;DHT22;31474;45.332;10.230;2022-12-07T00:08:36;3.20;99.90
45765;DHT22;31474;45.332;10.230;2022-12-07T00:11:07;3.30;99.90
45765;DHT22;31474;45.332;10.230;2022-12-07T00:13:33;3.40;99.90
45765;DHT22;31474;45.332;10.230;2022-12-07T00:16:11;3.40;99.90
45765;DHT22;31474;45.332;10.230;2022-12-07T00:18:38;3.30;99.90
45765;DHT22;31474;45.332;10.230;2022-12-07T00:21:06;3.30;99.90
45765;DHT22;31474;45.332;10.230;2022-12-07T00:23:33;3.40;99.90
45765;DHT22;31474;45.332;10.230;2022-12-07T00:26:15;3.40;99.90
45765;DHT22;31474;45.332;10.230;2022-12-07T00:28:45;3.50;99.90
45765;DHT22;31474;45.332;10.230;2022-12-07T00:31:12;3.60;99.90
45765;DHT22;31474;45.332;10.230;2022-12-07T00:33:38;3.60;99.90
45765;DHT22;31474;45.332;10.230;2022-12-07T00:36:07;3.70;99.90
45765;DHT22;31474;45.332;10.230;2022-12-07T00:38:35;3.60;99.90
45765;DHT22;31474;45.332;10.230;2022-12-07T00:41:06;3.60;99.90
45765;DHT22;31474;45.332;10.230;2022-12-07T00:43:32;3.60;99.90
45765;DHT22;31474;45.332;10.230;2022-12-07T00:45:58;3.70;99.90
45765;DHT22;31474;45.332;10.230;2022-12-07T00:48:24;3.70;99.90
45765;DHT22;31474;45.332;10.230;2022-12-07T00:50:50;3.60;99.90
45765;DHT22;31474;45.332;10.230;2022-12-07T00:53:17;3.60;99.90
45765;DHT22;31474;45.332;10.230;2022-12-07T00:55:43;3.60;99.90
45765;DHT22;31474;45.332;10.230;2022-12-07T00:58:09;3.60;99.90
45765;DHT22;31474;45.332;10.230;2022-12-07T01:00:36;3.50;99.90
45765;DHT22;31474;45.332;10.230;2022-12-07T01:03:04;3.50;99.90
45765;DHT22;31474;45.332;10.230;2022-12-07T01:05:29;3.50;99.90
45765;DHT22;31474;45.332;10.230;2022-12-07T01:07:55;3.40;99.90
45765;DHT22;31474;45.332;10.230;2022-12-07T01:10:21;3.40;99.90
45765;DHT22;31474;45.332;10.230;2022-12-07T01:12:47;3.40;99.90
45765;DHT22;31474;45.332;10.230;2022-12-07T01:15:13;3.40;99.90
45765;DHT22;31474;45.332;10.230;2022-12-07T01:17:38;3.20;99.90
45765;DHT22;31474;45.332;10.230;2022-12-07T01:20:05;3.10;99.90
45765;DHT22;31474;45.332;10.230;2022-12-07T01:22:31;3.00;99.90
45765;DHT22;31474;45.332;10.230;2022-12-07T01:24:57;3.10;99.90
45765;DHT22;31474;45.332;10.230;2022-12-07T01:27:22;3.10;99.90
45765;DHT22;31474;45.332;10.230;2022-12-07T01:29:48;3.00;99.90
45765;DHT22;31474;45.332;10.230;2022-12-07T01:32:13;2.90;99.90
45765;DHT22;31474;45.332;10.230;2022-12-07T01:34:39;2.90;99.90
45765;DHT22;31474;45.332;10.230;2022-12-07T01:37:05;2.90;99.90
45765;DHT22;31474;45.332;10.230;2022-12-07T01:39:30;2.90;99.90
45765;DHT22;31474;45.332;10.230;2022-12-07T01:41:56;2.90;99.90
45765;DHT22;31474;45.332;10.230;2022-12-07T01:46:50;2.90;99.90
45765;DHT22;31474;45.332;10.230;2022-12-07T01:51:48;3.10;99.90
45765;DHT22;31474;45.332;10.230;2022-12-07T01:54:15;3.00;99.90
45765;DHT22;31474;45.332;10.230;2022-12-07T01:56:46;3.00;99.90
45765;DHT22;31474;45.332;10.230;2022-12-07T01:59:15;2.90;99.90
45765;DHT22;31474;45.332;10.230;2022-12-07T02:01:41;3.00;99.90
45765;DHT22;31474;45.332;10.230;2022-12-07T02:04:07;3.00;99.90
45765;DHT22;31474;45.332;10.230;2022-12-07T02:06:33;3.00;99.90
45765;DHT22;31474;45.332;10.230;2022-12-07T02:09:00;3.00;99.90
45765;DHT22;31474;45.332;10.230;2022-12-07T02:11:26;3.00;99.90
45765;DHT22;31474;45.332;10.230;2022-12-07T02:13:52;3.00;99.90
45765;DHT22;31474;45.332;10.230;2022-12-07T02:16:36;3.10;99.90
45765;DHT22;31474;45.332;10.230;2022-12-07T02:27:37;3.20;99.90
45765;DHT22;31474;45.332;10.230;2022-12-07T02:30:13;3.20;99.90
45765;DHT22;31474;45.332;10.230;2022-12-07T02:33:14;3.20;99.90
45765;DHT22;31474;45.332;10.230;2022-12-07T02:35:41;3.20;99.90
45765;DHT22;31474;45.332;10.230;2022-12-07T02:40:52;3.10;99.90
45765;DHT22;31474;45.332;10.230;2022-12-07T02:43:37;3.10;99.90
45765;DHT22;31474;45.332;10.230;2022-12-07T02:46:09;3.10;99.90
45765;DHT22;31474;45.332;10.230;2022-12-07T02:48:37;3.10;99.90
45765;DHT22;31474;45.332;10.230;2022-12-07T02:51:04;3.00;99.90
45765;DHT22;31474;45.332;10.230;2022-12-07T02:53:32;3.00;99.90
45765;DHT22;31474;45.332;10.230;2022-12-07T02:56:07;3.00;99.90
45765;DHT22;31474;45.332;10.230;2022-12-07T03:06:58;3.00;99.90
45765;DHT22;31474;45.332;10.230;2022-12-07T03:09:37;3.00;99.90
45765;DHT22;31474;45.332;10.230;2022-12-07T03:12:21;3.00;99.90
45765;DHT22;31474;45.332;10.230;2022-12-07T03:14:55;3.00;99.90
45765;DHT22;31474;45.332;10.230;2022-12-07T03:17:27;3.00;99.90
45765;DHT22;31474;45.332;10.230;2022-12-07T03:19:57;3.00;99.90
45765;DHT22;31474;45.332;10.230;2022-12-07T03:22:28;3.00;99.90
45765;DHT22;31474;45.332;10.230;2022-12-07T03:25:02;3.00;99.90
45765;DHT22;31474;45.332;10.230;2022-12-07T03:27:34;3.00;99.90
45765;DHT22;31474;45.332;10.230;2022-12-07T03:32:40;3.00;99.90
45765;DHT22;31474;45.332;10.230;2022-12-07T03:35:12;3.00;99.90
45765;DHT22;31474;45.332;10.230;2022-12-07T03:38:00;3.00;99.90
45765;DHT22;31474;45.332;10.230;2022-12-07T03:40:42;3.00;99.90
45765;DHT22;31474;45.332;10.230;2022-12-07T03:43:10;3.10;99.90
45765;DHT22;31474;45.332;10.230;2022-12-07T03:45:44;3.00;99.90
45765;DHT22;31474;45.332;10.230;2022-12-07T03:48:24;3.00;99.90
45765;DHT22;31474;45.332;10.230;2022-12-07T03:51:06;3.00;99.90
45765;DHT22;31474;45.332;10.230;2022-12-07T03:53:42;3.00;99.90
45765;DHT22;31474;45.332;10.230;2022-12-07T03:56:10;2.90;99.90
45765;DHT22;31474;45.332;10.230;2022-12-07T03:58:37;2.90;99.90
45765;DHT22;31474;45.332;10.230;2022-12-07T04:01:03;2.90;99.90
45765;DHT22;31474;45.332;10.230;2022-12-07T04:03:29;2.90;99.90
45765;DHT22;31474;45.332;10.230;2022-12-07T04:05:54;2.90;99.90
45765;DHT22;31474;45.332;10.230;2022-12-07T04:08:20;2.90;99.90
45765;DHT22;31474;45.332;10.230;2022-12-07T04:10:46;2.90;99.90
45765;DHT22;31474;45.332;10.230;2022-12-07T04:13:12;2.90;99.90
45765;DHT22;31474;45.332;10.230;2022-12-07T04:15:37;2.90;99.90
45765;DHT22;31474;45.332;10.230;2022-12-07T04:18:03;2.90;99.90
45765;DHT22;31474;45.332;10.230;2022-12-07T04:20:29;2.90;99.90
45765;DHT22;31474;45.332;10.230;2022-12-07T04:22:54;2.90;99.90
45765;DHT22;31474;45.332;10.230;2022-12-07T04:25:20;2.90;99.90
45765;DHT22;31474;45.332;10.230;2022-12-07T04:27:46;2.80;99.90
45765;DHT22;31474;45.332;10.230;2022-12-07T04:30:12;2.90;99.90
45765;DHT22;31474;45.332;10.230;2022-12-07T04:32:38;2.90;99.90
45765;DHT22;31474;45.332;10.230;2022-12-07T04:35:04;2.90;99.90
45765;DHT22;31474;45.332;10.230;2022-12-07T04:37:30;2.90;99.90
45765;DHT22;31474;45.332;10.230;2022-12-07T04:39:55;2.90;99.90
45765;DHT22;31474;45.332;10.230;2022-12-07T04:42:21;2.90;99.90
45765;DHT22;31474;45.332;10.230;2022-12-07T04:44:47;3.00;99.90
45765;DHT22;31474;45.332;10.230;2022-12-07T04:47:12;2.90;99.90
45765;DHT22;31474;45.332;10.230;2022-12-07T04:49:38;2.80;99.90
45765;DHT22;31474;45.332;10.230;2022-12-07T04:52:04;2.80;99.90
45765;DHT22;31474;45.332;10.230;2022-12-07T04:54:30;2.80;99.90
45765;DHT22;31474;45.332;10.230;2022-12-07T04:56:55;2.80;99.90
45765;DHT22;31474;45.332;10.230;2022-12-07T04:59:21;2.80;99.90
45765;DHT22;31474;45.332;10.230;2022-12-07T05:01:46;2.70;99.90
45765;DHT22;31474;45.332;10.230;2022-12-07T05:04:12;2.70;99.90
45765;DHT22;31474;45.332;10.230;2022-12-07T05:06:38;2.70;99.90
45765;DHT22;31474;45.332;10.230;2022-12-07T05:09:04;2.70;99.90
45765;DHT22;31474;45.332;10.230;2022-12-07T05:11:30;2.60;99.90
45765;DHT22;31474;45.332;10.230;2022-12-07T05:16:35;2.70;99.90
45765;DHT22;31474;45.332;10.230;2022-12-07T05:19:01;2.70;99.90
45765;DHT22;31474;45.332;10.230;2022-12-07T05:21:27;2.70;99.90
45765;DHT22;31474;45.332;10.230;2022-12-07T05:23:53;2.80;99.90
45765;DHT22;31474;45.332;10.230;2022-12-07T05:26:18;2.70;99.90
45765;DHT22;31474;45.332;10.230;2022-12-07T05:28:44;2.70;99.90
45765;DHT22;31474;45.332;10.230;2022-12-07T05:31:10;2.70;99.90
45765;DHT22;31474;45.332;10.230;2022-12-07T05:33:35;2.70;99.90
45765;DHT22;31474;45.332;10.230;2022-12-07T05:36:01;2.70;99.90
45765;DHT22;31474;45.332;10.230;2022-12-07T05:38:31;2.70;99.90
45765;DHT22;31474;45.332;10.230;2022-12-07T05:41:03;2.70;99.90
45765;DHT22;31474;45.332;10.230;2022-12-07T05:43:30;2.70;99.90
45765;DHT22;31474;45.332;10.230;2022-12-07T05:45:56;2.70;99.90
45765;DHT22;31474;45.332;10.230;2022-12-07T05:48:22;2.70;99.90
45765;DHT22;31474;45.332;10.230;2022-12-07T05:50:48;2.70;99.90
45765;DHT22;31474;45.332;10.230;2022-12-07T05:53:14;2.60;99.90
45765;DHT22;31474;45.332;10.230;2022-12-07T05:55:39;2.50;99.90
45765;DHT22;31474;45.332;10.230;2022-12-07T05:58:05;2.50;99.90
45765;DHT22;31474;45.332;10.230;2022-12-07T06:00:49;2.50;99.90
45765;DHT22;31474;45.332;10.230;2022-12-07T06:03:15;2.50;99.90
45765;DHT22;31474;45.332;10.230;2022-12-07T06:05:40;2.50;99.90
45765;DHT22;31474;45.332;10.230;2022-12-07T06:08:07;2.60;99.90
45765;DHT22;31474;45.332;10.230;2022-12-07T06:10:32;2.60;99.90
45765;DHT22;31474;45.332;10.230;2022-12-07T06:12:58;2.60;99.90
45765;DHT22;31474;45.332;10.230;2022-12-07T06:15:24;2.50;99.90
45765;DHT22;31474;45.332;10.230;2022-12-07T06:17:50;2.50;99.90
45765;DHT22;31474;45.332;10.230;2022-12-07T06:20:15;2.50;99.90
45765;DHT22;31474;45.332;10.230;2022-12-07T06:22:41;2.50;99.90
45765;DHT22;31474;45.332;10.230;2022-12-07T06:25:07;2.50;99.90
45765;DHT22;31474;45.332;10.230;2022-12-07T06:27:34;2.60;99.90
45765;DHT22;31474;45.332;10.230;2022-12-07T06:30:00;2.50;99.90
45765;DHT22;31474;45.332;10.230;2022-12-07T06:32:32;2.50;99.90
45765;DHT22;31474;45.332;10.230;2022-12-07T06:34:58;2.50;99.90
45765;DHT22;31474;45.332;10.230;2022-12-07T06:37:24;2.50;99.90
45765;DHT22;31474;45.332;10.230;2022-12-07T06:39:50;2.50;99.90
45765;DHT22;31474;45.332;10.230;2022-12-07T06:42:15;2.50;99.90
45765;DHT22;31474;45.332;10.230;2022-12-07T06:44:41;2.50;99.90
45765;DHT22;31474;45.332;10.230;2022-12-07T06:47:07;2.40;99.90
45765;DHT22;31474;45.332;10.230;2022-12-07T06:49:35;2.40;99.90
45765;DHT22;31474;45.332;10.230;2022-12-07T06:52:00;2.50;99.90
45765;DHT22;31474;45.332;10.230;2022-12-07T06:54:26;2.50;99.90
45765;DHT22;31474;45.332;10.230;2022-12-07T06:56:52;2.50;99.90
45765;DHT22;31474;45.332;10.230;2022-12-07T06:59:18;2.50;99.90
45765;DHT22;31474;45.332;10.230;2022-12-07T07:01:43;2.50;99.90
45765;DHT22;31474;45.332;10.230;2022-12-07T07:04:09;2.50;99.90
45765;DHT22;31474;45.332;10.230;2022-12-07T07:06:35;2.60;99.90
45765;DHT22;31474;45.332;10.230;2022-12-07T07:09:00;2.50;99.90
45765;DHT22;31474;45.332;10.230;2022-12-07T07:11:26;2.40;99.90
45765;DHT22;31474;45.332;10.230;2022-12-07T07:13:52;2.40;99.90
45765;DHT22;31474;45.332;10.230;2022-12-07T07:16:18;2.50;99.90
45765;DHT22;31474;45.332;10.230;2022-12-07T07:18:43;2.50;99.90
45765;DHT22;31474;45.332;10.230;2022-12-07T07:21:09;2.50;99.90
45765;DHT22;31474;45.332;10.230;2022-12-07T07:23:35;2.50;99.90
45765;DHT22;31474;45.332;10.230;2022-12-07T07:26:00;2.50;99.90
45765;DHT22;31474;45.332;10.230;2022-12-07T07:28:26;2.60;99.90
45765;DHT22;31474;45.332;10.230;2022-12-07T07:30:52;2.60;99.90
45765;DHT22;31474;45.332;10.230;2022-12-07T07:33:17;2.60;99.90
45765;DHT22;31474;45.332;10.230;2022-12-07T07:35:43;2.70;99.90
45765;DHT22;31474;45.332;10.230;2022-12-07T07:38:09;2.70;99.90
45765;DHT22;31474;45.332;10.230;2022-12-07T07:40:34;2.70;99.90
45765;DHT22;31474;45.332;10.230;2022-12-07T07:43:00;2.70;99.90
45765;DHT22;31474;45.332;10.230;2022-12-07T07:45:26;2.70;99.90
45765;DHT22;31474;45.332;10.230;2022-12-07T07:47:52;2.70;99.90
45765;DHT22;31474;45.332;10.230;2022-12-07T07:50:18;2.70;99.90
45765;DHT22;31474;45.332;10.230;2022-12-07T07:52:44;2.80;99.90
45765;DHT22;31474;45.332;10.230;2022-12-07T07:55:11;2.80;99.90
45765;DHT22;31474;45.332;10.230;2022-12-07T07:57:37;2.70;99.90
45765;DHT22;31474;45.332;10.230;2022-12-07T08:00:09;2.70;99.90
45765;DHT22;31474;45.332;10.230;2022-12-07T08:02:35;2.70;99.90
45765;DHT22;31474;45.332;10.230;2022-12-07T08:05:01;2.70;99.90
45765;DHT22;31474;45.332;10.230;2022-12-07T08:07:27;2.70;99.90
45765;DHT22;31474;45.332;10.230;2022-12-07T08:09:53;2.80;99.90
45765;DHT22;31474;45.332;10.230;2022-12-07T08:12:19;2.80;99.90
45765;DHT22;31474;45.332;10.230;2022-12-07T08:14:44;2.70;99.90
45765;DHT22;31474;45.332;10.230;2022-12-07T08:17:10;2.70;99.90
45765;DHT22;31474;45.332;10.230;2022-12-07T08:19:36;2.70;99.90
45765;DHT22;31474;45.332;10.230;2022-12-07T08:22:02;2.80;99.90
45765;DHT22;31474;45.332;10.230;2022-12-07T08:24:28;2.90;99.90
45765;DHT22;31474;45.332;10.230;2022-12-07T08:26:53;2.90;99.90
45765;DHT22;31474;45.332;10.230;2022-12-07T08:29:19;3.00;99.90
45765;DHT22;31474;45.332;10.230;2022-12-07T08:31:46;3.00;99.90
45765;DHT22;31474;45.332;10.230;2022-12-07T08:34:13;3.00;99.90
45765;DHT22;31474;45.332;10.230;2022-12-07T08:36:39;3.10;99.90
45765;DHT22;31474;45.332;10.230;2022-12-07T08:39:05;3.10;99.90
45765;DHT22;31474;45.332;10.230;2022-12-07T08:41:31;3.10;99.90
45765;DHT22;31474;45.332;10.230;2022-12-07T08:43:57;3.20;99.90
45765;DHT22;31474;45.332;10.230;2022-12-07T08:46:38;3.10;99.90
45765;DHT22;31474;45.332;10.230;2022-12-07T08:49:09;3.20;99.90
45765;DHT22;31474;45.332;10.230;2022-12-07T08:51:36;3.20;99.90
45765;DHT22;31474;45.332;10.230;2022-12-07T08:54:04;3.30;99.90
45765;DHT22;31474;45.332;10.230;2022-12-07T08:56:31;3.40;99.90
45765;DHT22;31474;45.332;10.230;2022-12-07T08:58:57;3.50;99.90
45765;DHT22;31474;45.332;10.230;2022-12-07T09:01:23;3.60;99.90
45765;DHT22;31474;45.332;10.230;2022-12-07T09:03:49;3.60;99.90
45765;DHT22;31474;45.332;10.230;2022-12-07T09:06:14;3.70;99.90
45765;DHT22;31474;45.332;10.230;2022-12-07T09:08:43;3.80;99.90
45765;DHT22;31474;45.332;10.230;2022-12-07T09:11:11;3.80;99.90
45765;DHT22;31474;45.332;10.230;2022-12-07T09:13:36;3.90;99.90
45765;DHT22;31474;45.332;10.230;2022-12-07T09:16:02;3.90;99.90
45765;DHT22;31474;45.332;10.230;2022-12-07T09:18:28;3.90;99.90
45765;DHT22;31474;45.332;10.230;2022-12-07T09:20:53;3.90;99.90
45765;DHT22;31474;45.332;10.230;2022-12-07T09:23:19;4.10;99.90
45765;DHT22;31474;45.332;10.230;2022-12-07T09:25:45;4.10;99.90
45765;DHT22;31474;45.332;10.230;2022-12-07T09:28:10;4.20;99.90
45765;DHT22;31474;45.332;10.230;2022-12-07T09:30:36;4.10;99.90
45765;DHT22;31474;45.332;10.230;2022-12-07T09:33:02;4.10;99.90
45765;DHT22;31474;45.332;10.230;2022-12-07T09:35:27;4.00;99.90
45765;DHT22;31474;45.332;10.230;2022-12-07T09:37:53;4.00;99.90
45765;DHT22;31474;45.332;10.230;2022-12-07T09:40:21;4.00;99.90
45765;DHT22;31474;45.332;10.230;2022-12-07T09:42:51;4.00;99.90
45765;DHT22;31474;45.332;10.230;2022-12-07T09:45:22;4.10;99.90
45765;DHT22;31474;45.332;10.230;2022-12-07T09:47:48;4.10;99.90
45765;DHT22;31474;45.332;10.230;2022-12-07T09:50:17;4.10;99.90
45765;DHT22;31474;45.332;10.230;2022-12-07T09:52:45;4.10;99.90
45765;DHT22;31474;45.332;10.230;2022-12-07T09:55:16;4.10;99.90
45765;DHT22;31474;45.332;10.230;2022-12-07T09:57:42;4.00;99.90
45765;DHT22;31474;45.332;10.230;2022-12-07T10:00:16;4.10;99.90
45765;DHT22;31474;45.332;10.230;2022-12-07T10:05:42;4.10;99.90
45765;DHT22;31474;45.332;10.230;2022-12-07T10:08:11;4.10;99.90
45765;DHT22;31474;45.332;10.230;2022-12-07T10:10:37;4.20;99.90
45765;DHT22;31474;45.332;10.230;2022-12-07T10:13:12;4.20;99.90
45765;DHT22;31474;45.332;10.230;2022-12-07T10:15:44;4.30;99.90
45765;DHT22;31474;45.332;10.230;2022-12-07T10:18:40;4.40;99.90
45765;DHT22;31474;45.332;10.230;2022-12-07T10:23:58;4.60;99.90
45765;DHT22;31474;45.332;10.230;2022-12-07T10:29:00;4.70;99.90
45765;DHT22;31474;45.332;10.230;2022-12-07T10:31:27;4.70;99.90
45765;DHT22;31474;45.332;10.230;2022-12-07T10:33:56;4.70;99.90
45765;DHT22;31474;45.332;10.230;2022-12-07T10:36:34;4.80;99.90
45765;DHT22;31474;45.332;10.230;2022-12-07T10:39:16;4.90;99.90
45765;DHT22;31474;45.332;10.230;2022-12-07T10:41:57;5.00;99.90
45765;DHT22;31474;45.332;10.230;2022-12-07T10:44:27;5.00;99.90
45765;DHT22;31474;45.332;10.230;2022-12-07T10:52:28;5.10;99.90
45765;DHT22;31474;45.332;10.230;2022-12-07T11:16:26;5.20;99.90
45765;DHT22;31474;45.332;10.230;2022-12-07T11:24:32;5.30;99.90
45765;DHT22;31474;45.332;10.230;2022-12-07T11:27:24;5.30;99.90
45765;DHT22;31474;45.332;10.230;2022-12-07T11:33:04;5.50;99.90
45765;DHT22;31474;45.332;10.230;2022-12-07T11:35:34;5.50;99.90
45765;DHT22;31474;45.332;10.230;2022-12-07T11:38:17;5.50;99.90
45765;DHT22;31474;45.332;10.230;2022-12-07T11:40:48;5.40;99.90
45765;DHT22;31474;45.332;10.230;2022-12-07T11:43:26;5.40;99.90
45765;DHT22;31474;45.332;10.230;2022-12-07T11:46:00;5.40;99.90
45765;DHT22;31474;45.332;10.230;2022-12-07T11:49:11;5.40;99.90
45765;DHT22;31474;45.332;10.230;2022-12-07T11:51:30;5.50;99.90
45765;DHT22;31474;45.332;10.230;2022-12-07T11:54:03;5.40;99.90
45765;DHT22;31474;45.332;10.230;2022-12-07T11:56:30;5.30;99.90
45765;DHT22;31474;45.332;10.230;2022-12-07T11:59:27;5.30;99.90
45765;DHT22;31474;45.332;10.230;2022-12-07T12:02:16;5.30;99.90
45765;DHT22;31474;45.332;10.230;2022-12-07T12:07:29;5.40;99.90
45765;DHT22;31474;45.332;10.230;2022-12-07T12:10:00;5.40;99.90
45765;DHT22;31474;45.332;10.230;2022-12-07T12:18:29;5.30;99.90
45765;DHT22;31474;45.332;10.230;2022-12-07T12:21:04;5.40;99.90
45765;DHT22;31474;45.332;10.230;2022-12-07T12:24:05;5.50;99.90
45765;DHT22;31474;45.332;10.230;2022-12-07T12:26:36;5.60;99.90
45765;DHT22;31474;45.332;10.230;2022-12-07T12:29:06;5.60;99.90
45765;DHT22;31474;45.332;10.230;2022-12-07T12:31:39;5.60;99.90
45765;DHT22;31474;45.332;10.230;2022-12-07T12:35:20;5.50;99.90
45765;DHT22;31474;45.332;10.230;2022-12-07T12:45:21;5.50;99.90
45765;DHT22;31474;45.332;10.230;2022-12-07T12:47:58;5.50;99.90
45765;DHT22;31474;45.332;10.230;2022-12-07T12:50:32;5.60;99.90
45765;DHT22;31474;45.332;10.230;2022-12-07T12:53:23;5.60;99.90
45765;DHT22;31474;45.332;10.230;2022-12-07T13:00:45;5.50;99.90
45765;DHT22;31474;45.332;10.230;2022-12-07T13:03:24;5.50;99.90
45765;DHT22;31474;45.332;10.230;2022-12-07T13:08:49;5.60;99.90
45765;DHT22;31474;45.332;10.230;2022-12-07T13:11:40;5.60;99.90
45765;DHT22;31474;45.332;10.230;2022-12-07T13:14:39;5.60;99.90
45765;DHT22;31474;45.332;10.230;2022-12-07T13:17:09;5.70;99.90
45765;DHT22;31474;45.332;10.230;2022-12-07T13:25:04;5.80;99.90
45765;DHT22;31474;45.332;10.230;2022-12-07T13:27:31;5.70;99.90
45765;DHT22;31474;45.332;10.230;2022-12-07T13:29:57;5.70;99.90
45765;DHT22;31474;45.332;10.230;2022-12-07T13:32:28;5.60;99.90
45765;DHT22;31474;45.332;10.230;2022-12-07T13:34:55;5.50;99.90
45765;DHT22;31474;45.332;10.230;2022-12-07T13:37:25;5.40;99.90
45765;DHT22;31474;45.332;10.230;2022-12-07T13:39:57;5.40;99.90
45765;DHT22;31474;45.332;10.230;2022-12-07T13:42:27;5.40;99.90
45765;DHT22;31474;45.332;10.230;2022-12-07T13:44:54;5.40;99.90
45765;DHT22;31474;45.332;10.230;2022-12-07T13:47:38;5.40;99.90
45765;DHT22;31474;45.332;10.230;2022-12-07T13:50:27;5.40;99.90
45765;DHT22;31474;45.332;10.230;2022-12-07T13:52:58;5.50;99.90
45765;DHT22;31474;45.332;10.230;2022-12-07T13:55:24;5.50;99.90
45765;DHT22;31474;45.332;10.230;2022-12-07T13:57:52;5.50;99.90
45765;DHT22;31474;45.332;10.230;2022-12-07T14:00:23;5.50;99.90
45765;DHT22;31474;45.332;10.230;2022-12-07T14:05:38;5.60;99.90
45765;DHT22;31474;45.332;10.230;2022-12-07T14:08:20;5.60;99.90
45765;DHT22;31474;45.332;10.230;2022-12-07T14:13:32;5.60;99.90
45765;DHT22;31474;45.332;10.230;2022-12-07T14:18:45;5.60;99.90
45765;DHT22;31474;45.332;10.230;2022-12-07T14:21:23;5.50;99.90
45765;DHT22;31474;45.332;10.230;2022-12-07T14:24:22;5.50;99.90
45765;DHT22;31474;45.332;10.230;2022-12-07T14:26:49;5.50;99.90
45765;DHT22;31474;45.332;10.230;2022-12-07T14:31:54;5.60;99.90
45765;DHT22;31474;45.332;10.230;2022-12-07T14:34:21;5.60;99.90
45765;DHT22;31474;45.332;10.230;2022-12-07T14:36:47;5.70;99.90
45765;DHT22;31474;45.332;10.230;2022-12-07T14:39:13;5.70;99.90
45765;DHT22;31474;45.332;10.230;2022-12-07T14:41:38;5.60;99.90
45765;DHT22;31474;45.332;10.230;2022-12-07T14:44:18;5.60;99.90
45765;DHT22;31474;45.332;10.230;2022-12-07T14:46:44;5.60;99.90
45765;DHT22;31474;45.332;10.230;2022-12-07T14:49:10;5.60;99.90
45765;DHT22;31474;45.332;10.230;2022-12-07T14:51:38;5.60;99.90
45765;DHT22;31474;45.332;10.230;2022-12-07T14:54:06;5.60;99.90
45765;DHT22;31474;45.332;10.230;2022-12-07T14:56:32;5.60;99.90
45765;DHT22;31474;45.332;10.230;2022-12-07T14:58:58;5.50;99.90
45765;DHT22;31474;45.332;10.230;2022-12-07T15:01:23;5.60;99.90
45765;DHT22;31474;45.332;10.230;2022-12-07T15:03:49;5.60;99.90
45765;DHT22;31474;45.332;10.230;2022-12-07T15:06:16;5.50;99.90
45765;DHT22;31474;45.332;10.230;2022-12-07T15:08:42;5.50;99.90
45765;DHT22;31474;45.332;10.230;2022-12-07T15:11:14;5.50;99.90
45765;DHT22;31474;45.332;10.230;2022-12-07T15:13:40;5.40;99.90
45765;DHT22;31474;45.332;10.230;2022-12-07T15:16:24;5.50;99.90
45765;DHT22;31474;45.332;10.230;2022-12-07T15:18:50;5.50;99.90
45765;DHT22;31474;45.332;10.230;2022-12-07T15:21:16;5.50;99.90
45765;DHT22;31474;45.332;10.230;2022-12-07T15:23:41;5.50;99.90
45765;DHT22;31474;45.332;10.230;2022-12-07T15:26:07;5.50;99.90
45765;DHT22;31474;45.332;10.230;2022-12-07T15:28:35;5.40;99.90
45765;DHT22;31474;45.332;10.230;2022-12-07T15:31:01;5.40;99.90
45765;DHT22;31474;45.332;10.230;2022-12-07T15:33:26;5.40;99.90
45765;DHT22;31474;45.332;10.230;2022-12-07T15:35:52;5.40;99.90
45765;DHT22;31474;45.332;10.230;2022-12-07T15:38:18;5.30;99.90
45765;DHT22;31474;45.332;10.230;2022-12-07T15:40:46;5.20;99.90
45765;DHT22;31474;45.332;10.230;2022-12-07T15:43:12;5.20;99.90
45765;DHT22;31474;45.332;10.230;2022-12-07T15:45:56;5.20;99.90
45765;DHT22;31474;45.332;10.230;2022-12-07T15:48:22;5.20;99.90
45765;DHT22;31474;45.332;10.230;2022-12-07T15:50:48;5.20;99.90
45765;DHT22;31474;45.332;10.230;2022-12-07T15:53:14;5.10;99.90
45765;DHT22;31474;45.332;10.230;2022-12-07T15:55:40;5.20;99.90
45765;DHT22;31474;45.332;10.230;2022-12-07T15:58:06;5.20;99.90
45765;DHT22;31474;45.332;10.230;2022-12-07T16:00:32;5.10;99.90
45765;DHT22;31474;45.332;10.230;2022-12-07T16:02:58;5.10;99.90
45765;DHT22;31474;45.332;10.230;2022-12-07T16:05:23;5.10;99.90
45765;DHT22;31474;45.332;10.230;2022-12-07T16:07:49;5.10;99.90
45765;DHT22;31474;45.332;10.230;2022-12-07T16:10:15;5.00;99.90
45765;DHT22;31474;45.332;10.230;2022-12-07T16:12:40;5.00;99.90
45765;DHT22;31474;45.332;10.230;2022-12-07T16:15:06;5.00;99.90
45765;DHT22;31474;45.332;10.230;2022-12-07T16:17:32;5.10;99.90
45765;DHT22;31474;45.332;10.230;2022-12-07T16:19:58;5.10;99.90
45765;DHT22;31474;45.332;10.230;2022-12-07T16:22:24;5.00;99.90
45765;DHT22;31474;45.332;10.230;2022-12-07T16:24:49;5.10;99.90
45765;DHT22;31474;45.332;10.230;2022-12-07T16:27:15;5.10;99.90
45765;DHT22;31474;45.332;10.230;2022-12-07T16:29:41;5.10;99.90
45765;DHT22;31474;45.332;10.230;2022-12-07T16:32:06;5.10;99.90
45765;DHT22;31474;45.332;10.230;2022-12-07T16:34:32;5.10;99.90
45765;DHT22;31474;45.332;10.230;2022-12-07T16:36:57;5.00;99.90
45765;DHT22;31474;45.332;10.230;2022-12-07T16:39:23;5.00;99.90
45765;DHT22;31474;45.332;10.230;2022-12-07T16:41:49;5.10;99.90
45765;DHT22;31474;45.332;10.230;2022-12-07T16:44:15;5.00;99.90
45765;DHT22;31474;45.332;10.230;2022-12-07T16:46:41;5.00;99.90
45765;DHT22;31474;45.332;10.230;2022-12-07T16:49:11;5.00;99.90
45765;DHT22;31474;45.332;10.230;2022-12-07T16:51:37;5.00;99.90
45765;DHT22;31474;45.332;10.230;2022-12-07T16:54:03;5.00;99.90
45765;DHT22;31474;45.332;10.230;2022-12-07T16:56:28;5.00;99.90
45765;DHT22;31474;45.332;10.230;2022-12-07T16:58:54;5.10;99.90
45765;DHT22;31474;45.332;10.230;2022-12-07T17:01:21;5.00;99.90
45765;DHT22;31474;45.332;10.230;2022-12-07T17:03:48;5.00;99.90
45765;DHT22;31474;45.332;10.230;2022-12-07T17:06:19;4.90;99.90
45765;DHT22;31474;45.332;10.230;2022-12-07T17:08:45;4.90;99.90
45765;DHT22;31474;45.332;10.230;2022-12-07T17:11:13;4.90;99.90
45765;DHT22;31474;45.332;10.230;2022-12-07T17:13:39;4.90;99.90
45765;DHT22;31474;45.332;10.230;2022-12-07T17:16:23;4.90;99.90
45765;DHT22;31474;45.332;10.230;2022-12-07T17:18:49;4.90;99.90
45765;DHT22;31474;45.332;10.230;2022-12-07T17:21:14;4.90;99.90
45765;DHT22;31474;45.332;10.230;2022-12-07T17:23:40;4.90;99.90
45765;DHT22;31474;45.332;10.230;2022-12-07T17:26:21;4.80;99.90
45765;DHT22;31474;45.332;10.230;2022-12-07T17:28:47;4.80;99.90
45765;DHT22;31474;45.332;10.230;2022-12-07T17:31:15;4.80;99.90
45765;DHT22;31474;45.332;10.230;2022-12-07T17:33:41;4.70;99.90
45765;DHT22;31474;45.332;10.230;2022-12-07T17:38:36;4.70;99.90
45765;DHT22;31474;45.332;10.230;2022-12-07T17:41:16;4.80;99.90